createdAt,value
2018-02-17T00:02:05.829Z,25.30
2018-02-17T00:04:35.209Z,25.50
2018-02-17T00:07:03.816Z,29.50
2018-02-17T00:09:32.412Z,25.90
2018-02-17T00:12:01.734Z,24.20
2018-02-17T00:14:30.353Z,22.20
2018-02-17T00:16:59.063Z,25.23
2018-02-17T00:19:27.666Z,22.17
2018-02-17T00:21:56.268Z,26.33
2018-02-17T00:24:24.684Z,21.83
2018-02-17T00:26:53.263Z,20.13
2018-02-17T00:29:21.683Z,18.13
2018-02-17T00:31:50.264Z,20.27
2018-02-17T00:34:18.836Z,24.80
2018-02-17T00:36:47.378Z,24.33
2018-02-17T00:39:15.967Z,20.03
2018-02-17T00:41:44.742Z,20.80
2018-02-17T00:44:13.324Z,22.60
2018-02-17T00:46:41.917Z,24.63
2018-02-17T00:49:10.478Z,25.80
2018-02-17T00:51:39.080Z,24.03
2018-02-17T00:54:07.789Z,23.60
2018-02-17T00:56:36.392Z,24.43
2018-02-17T00:59:05.842Z,26.17
2018-02-17T01:01:34.398Z,22.43
2018-02-17T01:04:04.914Z,20.50
2018-02-17T01:06:33.508Z,22.17
2018-02-17T01:09:02.861Z,22.90
2018-02-17T01:11:31.435Z,18.93
2018-02-17T01:14:00.014Z,20.30
2018-02-17T01:16:28.661Z,22.67
2018-02-17T01:18:57.269Z,22.30
2018-02-17T01:21:26.608Z,22.53
2018-02-17T01:23:55.225Z,24.10
2018-02-17T01:26:23.792Z,27.60
2018-02-17T01:28:52.370Z,30.90
2018-02-17T01:31:20.962Z,26.47
2018-02-17T01:33:49.550Z,23.80
2018-02-17T01:36:19.185Z,24.47
2018-02-17T01:38:47.780Z,24.20
2018-02-17T01:41:16.361Z,27.20
2018-02-17T01:43:44.952Z,24.97
2018-02-17T01:46:13.339Z,26.60
2018-02-17T01:48:41.962Z,25.13
2018-02-17T01:51:11.314Z,25.03
2018-02-17T01:53:39.745Z,23.57
2018-02-17T01:56:08.312Z,25.13
2018-02-17T01:58:36.742Z,23.90
2018-02-17T02:01:05.342Z,21.73
2018-02-17T02:03:33.876Z,23.97
2018-02-17T02:06:03.232Z,22.50
2018-02-17T02:08:31.845Z,23.50
2018-02-17T02:11:00.433Z,22.73
2018-02-17T02:13:29.107Z,21.53
2018-02-17T02:15:57.663Z,21.03
2018-02-17T02:18:26.295Z,21.37
2018-02-17T02:20:54.875Z,20.57
2018-02-17T02:23:23.110Z,20.50
2018-02-17T02:25:51.700Z,20.30
2018-02-17T02:28:20.235Z,23.03
2018-02-17T02:30:49.123Z,21.42
2018-02-17T02:33:17.721Z,20.93
2018-02-17T02:35:46.344Z,21.83
2018-02-17T02:38:14.968Z,21.60
2018-02-17T02:40:43.571Z,21.67
2018-02-17T02:43:12.510Z,24.40
2018-02-17T02:45:41.346Z,22.52
2018-02-17T02:48:09.925Z,21.63
2018-02-17T02:50:38.513Z,21.60
2018-02-17T02:53:07.055Z,21.07
2018-02-17T02:55:35.617Z,20.47
2018-02-17T02:58:04.225Z,21.63
2018-02-17T03:00:32.997Z,20.57
2018-02-17T03:03:01.566Z,18.13
2018-02-17T03:05:30.148Z,19.50
2018-02-17T03:07:58.838Z,18.67
2018-02-17T03:10:27.436Z,18.33
2018-02-17T03:12:56.735Z,16.40
2018-02-17T03:15:25.201Z,15.67
2018-02-17T03:17:53.822Z,15.53
2018-02-17T03:20:22.260Z,15.80
2018-02-17T03:22:50.826Z,15.97
2018-02-17T03:25:19.403Z,15.37
2018-02-17T03:27:47.999Z,16.70
2018-02-17T03:30:16.608Z,17.63
2018-02-17T03:32:45.196Z,16.97
2018-02-17T03:35:13.786Z,15.73
2018-02-17T03:37:42.359Z,16.93
2018-02-17T03:40:10.956Z,15.80
2018-02-17T03:42:39.639Z,16.07
2018-02-17T03:45:08.233Z,14.13
2018-02-17T03:47:36.814Z,14.80
2018-02-17T03:50:05.042Z,16.47
2018-02-17T03:52:34.397Z,14.73
2018-02-17T03:55:02.960Z,15.13
2018-02-17T03:57:31.568Z,14.70
2018-02-17T04:00:00.248Z,16.43
2018-02-17T04:02:28.763Z,15.23
2018-02-17T04:04:57.340Z,14.40
2018-02-17T04:07:25.952Z,16.17
2018-02-17T04:09:55.310Z,16.40
2018-02-17T04:12:23.904Z,16.07
2018-02-17T04:14:52.439Z,15.10
2018-02-17T04:17:21.790Z,17.33
2018-02-17T04:19:50.328Z,17.53
2018-02-17T04:22:18.918Z,18.10
2018-02-17T04:24:47.504Z,15.20
2018-02-17T04:27:16.070Z,15.40
2018-02-17T04:29:44.609Z,13.27
2018-02-17T04:32:13.159Z,15.33
2018-02-17T04:34:41.756Z,16.50
2018-02-17T04:37:10.184Z,15.83
2018-02-17T04:42:54.984Z,19.27
2018-02-17T04:45:23.316Z,17.63
2018-02-17T04:47:54.298Z,17.67
2018-02-17T04:50:28.227Z,15.23
2018-02-17T04:56:03.916Z,15.93
2018-02-17T04:58:37.063Z,14.63
2018-02-17T05:01:11.147Z,15.37
2018-02-17T05:03:52.399Z,14.40
2018-02-17T05:09:26.535Z,15.90
2018-02-17T05:11:54.872Z,16.00
2018-02-17T05:14:23.185Z,16.67
2018-02-17T05:16:51.522Z,16.03
2018-02-17T05:19:23.361Z,16.70
2018-02-17T05:21:53.649Z,15.07
2018-02-17T05:24:24.879Z,15.70
2018-02-17T05:30:06.724Z,14.45
2018-02-17T05:35:45.725Z,16.30
2018-02-17T05:38:14.118Z,16.37
2018-02-17T05:40:48.163Z,16.83
2018-02-17T05:43:16.510Z,16.27
2018-02-17T05:48:56.547Z,18.60
2018-02-17T05:51:24.845Z,17.13
2018-02-17T05:53:53.339Z,15.50
2018-02-17T05:56:21.849Z,16.60
2018-02-17T05:58:51.086Z,15.50
2018-02-17T06:01:19.583Z,14.67
2018-02-17T06:03:48.053Z,16.40
2018-02-17T06:06:16.553Z,15.43
2018-02-17T06:08:45.046Z,15.10
2018-02-17T06:11:13.363Z,14.80
2018-02-17T06:13:41.695Z,14.97
2018-02-17T06:16:11.151Z,15.90
2018-02-17T06:18:39.661Z,15.40
2018-02-17T06:21:08.158Z,15.23
2018-02-17T06:23:36.626Z,14.97
2018-02-17T06:26:05.127Z,16.03
2018-02-17T06:28:33.592Z,16.10
2018-02-17T06:31:02.097Z,16.33
2018-02-17T06:33:30.603Z,18.67
2018-02-17T06:35:59.834Z,18.00
2018-02-17T06:38:28.340Z,16.77
2018-02-17T06:40:56.815Z,18.17
2018-02-17T06:43:25.326Z,20.70
2018-02-17T06:45:54.673Z,18.87
2018-02-17T06:48:23.140Z,20.30
2018-02-17T06:50:51.641Z,19.83
2018-02-17T06:53:22.349Z,19.75
2018-02-17T06:55:51.948Z,20.10
2018-02-17T06:58:20.550Z,17.17
2018-02-17T07:00:49.088Z,18.77
2018-02-17T07:03:17.671Z,20.30
2018-02-17T07:05:47.020Z,20.23
2018-02-17T07:08:15.594Z,19.80
2018-02-17T07:10:44.150Z,20.63
2018-02-17T07:13:13.493Z,19.40
2018-02-17T07:15:42.033Z,19.70
2018-02-17T07:18:10.581Z,20.07
2018-02-17T07:20:39.183Z,17.73
2018-02-17T07:23:07.757Z,19.10
2018-02-17T07:25:36.295Z,17.90
2018-02-17T07:28:04.714Z,18.90
2018-02-17T07:30:33.262Z,19.80
2018-02-17T07:33:01.854Z,20.07
2018-02-17T07:35:30.502Z,20.33
2018-02-17T07:37:59.106Z,18.83
2018-02-17T07:40:27.684Z,19.40
2018-02-17T07:42:55.622Z,17.93
2018-02-17T07:45:24.991Z,19.27
2018-02-17T07:47:53.584Z,20.63
2018-02-17T07:50:22.135Z,19.87
2018-02-17T07:52:50.736Z,18.77
2018-02-17T07:55:19.254Z,20.07
2018-02-17T07:57:48.814Z,19.53
2018-02-17T08:00:17.387Z,19.90
2018-02-17T08:02:45.917Z,19.17
2018-02-17T08:05:15.382Z,20.93
2018-02-17T08:07:44.906Z,21.77
2018-02-17T08:10:13.461Z,19.90
2018-02-17T08:12:42.224Z,20.20
2018-02-17T08:15:10.765Z,19.13
2018-02-17T08:17:39.335Z,19.50
2018-02-17T08:20:10.907Z,18.50
2018-02-17T08:22:39.462Z,19.47
2018-02-17T08:25:08.038Z,19.00
2018-02-17T08:27:36.613Z,17.90
2018-02-17T08:30:04.850Z,18.07
2018-02-17T08:32:33.392Z,18.93
2018-02-17T08:35:01.938Z,19.90
2018-02-17T08:37:30.583Z,20.07
2018-02-17T08:40:01.123Z,20.93
2018-02-17T08:42:29.725Z,20.50
2018-02-17T08:44:58.986Z,19.40
2018-02-17T08:47:27.586Z,20.17
2018-02-17T08:49:56.140Z,20.77
2018-02-17T08:52:34.654Z,19.17
2018-02-17T08:55:03.227Z,19.67
2018-02-17T08:57:31.777Z,18.03
2018-02-17T09:00:00.181Z,17.57
2018-02-17T09:02:28.678Z,17.37
2018-02-17T09:04:57.100Z,18.77
2018-02-17T09:07:25.600Z,18.87
2018-02-17T09:09:54.206Z,18.43
2018-02-17T09:12:24.568Z,18.73
2018-02-17T09:14:54.763Z,16.40
2018-02-17T09:17:23.351Z,17.90
2018-02-17T09:19:51.874Z,18.13
2018-02-17T09:22:20.374Z,18.50
2018-02-17T09:24:49.084Z,16.30
2018-02-17T09:27:17.597Z,16.63
2018-02-17T09:29:46.192Z,16.00
2018-02-17T09:32:14.630Z,16.60
2018-02-17T09:34:43.196Z,17.27
2018-02-17T09:37:11.772Z,18.37
2018-02-17T09:39:41.200Z,17.93
2018-02-17T09:42:09.726Z,15.57
2018-02-17T09:44:38.278Z,17.50
2018-02-17T09:47:06.800Z,18.00
2018-02-17T09:49:35.370Z,17.57
2018-02-17T09:52:03.958Z,16.13
2018-02-17T09:54:32.526Z,15.57
2018-02-17T09:57:01.092Z,17.23
2018-02-17T09:59:29.615Z,16.67
2018-02-17T10:01:59.186Z,14.83
2018-02-17T10:04:27.741Z,16.53
2018-02-17T10:06:57.014Z,16.57
2018-02-17T10:09:26.495Z,17.60
2018-02-17T10:11:55.205Z,15.30
2018-02-17T10:14:24.527Z,17.50
2018-02-17T10:16:54.054Z,16.30
2018-02-17T10:19:22.644Z,16.77
2018-02-17T10:21:51.189Z,15.50
2018-02-17T10:24:19.759Z,16.20
2018-02-17T10:26:49.062Z,15.03
2018-02-17T10:29:19.578Z,17.10
2018-02-17T10:31:48.102Z,16.03
2018-02-17T10:34:16.917Z,16.60
2018-02-17T10:36:45.460Z,16.97
2018-02-17T10:39:13.995Z,15.07
2018-02-17T10:41:42.583Z,16.97
2018-02-17T10:44:10.918Z,18.37
2018-02-17T10:46:39.476Z,17.93
2018-02-17T10:49:08.069Z,17.00
2018-02-17T10:51:36.586Z,17.93
2018-02-17T10:54:05.384Z,15.53
2018-02-17T10:56:34.088Z,16.93
2018-02-17T10:59:02.656Z,16.93
2018-02-17T11:01:33.235Z,16.43
2018-02-17T11:04:01.825Z,14.20
2018-02-17T11:06:30.531Z,15.30
2018-02-17T11:08:59.211Z,15.57
2018-02-17T11:11:27.755Z,16.70
2018-02-17T11:13:56.335Z,17.50
2018-02-17T11:16:25.667Z,16.53
2018-02-17T11:18:54.165Z,16.20
2018-02-17T11:21:22.776Z,14.50
2018-02-17T11:23:55.970Z,15.63
2018-02-17T11:26:24.872Z,14.07
2018-02-17T11:28:53.317Z,14.47
2018-02-17T11:31:34.393Z,14.73
2018-02-17T11:34:02.959Z,14.87
2018-02-17T11:36:31.540Z,14.17
2018-02-17T11:39:00.096Z,14.37
2018-02-17T11:41:28.657Z,12.47
2018-02-17T11:43:57.259Z,12.70
2018-02-17T11:46:25.888Z,12.97
2018-02-17T11:48:54.443Z,14.30
2018-02-17T11:51:23.014Z,11.67
2018-02-17T11:53:51.596Z,12.33
2018-02-17T11:56:24.062Z,12.40
2018-02-17T11:58:52.639Z,11.50
2018-02-17T12:01:21.216Z,12.07
2018-02-17T12:03:49.779Z,11.90
2018-02-17T12:06:18.339Z,11.50
2018-02-17T12:08:46.867Z,12.17
2018-02-17T12:11:15.447Z,11.67
2018-02-17T12:13:53.685Z,10.30
2018-02-17T12:16:23.034Z,10.73
2018-02-17T12:18:52.198Z,10.50
2018-02-17T12:21:21.527Z,11.47
2018-02-17T12:23:50.101Z,12.17
2018-02-17T12:26:18.898Z,12.97
2018-02-17T12:28:47.434Z,9.87
2018-02-17T12:31:16.022Z,11.60
2018-02-17T12:33:45.412Z,11.43
2018-02-17T12:36:14.009Z,11.23
2018-02-17T12:38:43.304Z,11.77
2018-02-17T12:41:11.851Z,11.70
2018-02-17T12:43:40.375Z,11.43
2018-02-17T12:46:09.720Z,11.50
2018-02-17T12:48:38.236Z,10.93
2018-02-17T12:51:06.778Z,12.23
2018-02-17T12:53:36.132Z,11.53
2018-02-17T12:56:04.662Z,11.90
2018-02-17T12:58:33.235Z,14.27
2018-02-17T13:01:01.828Z,11.53
2018-02-17T13:03:30.465Z,10.67
2018-02-17T13:05:59.011Z,11.63
2018-02-17T13:08:27.417Z,11.63
2018-02-17T13:10:55.946Z,11.23
2018-02-17T13:13:24.500Z,27.20
2018-02-17T13:15:53.054Z,14.43
2018-02-17T13:18:21.564Z,12.63
2018-02-17T13:20:50.917Z,10.10
2018-02-17T13:23:19.486Z,12.37
2018-02-17T13:25:48.113Z,10.77
2018-02-17T13:28:25.899Z,10.40
2018-02-17T13:30:54.404Z,9.70
2018-02-17T13:33:23.750Z,11.30
2018-02-17T13:35:52.322Z,10.20
2018-02-17T13:38:20.875Z,9.77
2018-02-17T13:40:49.416Z,13.07
2018-02-17T13:43:18.164Z,11.93
2018-02-17T13:45:47.468Z,13.50
2018-02-17T13:48:16.778Z,13.47
2018-02-17T13:50:45.335Z,14.57
2018-02-17T13:53:14.748Z,14.17
2018-02-17T13:55:44.146Z,15.33
2018-02-17T13:58:13.458Z,17.20
2018-02-17T14:00:42.321Z,13.17
2018-02-17T14:03:10.851Z,15.00
2018-02-17T14:05:39.417Z,13.80
2018-02-17T14:08:07.996Z,13.00
2018-02-17T14:10:37.267Z,13.77
2018-02-17T14:13:05.811Z,12.63
2018-02-17T14:15:34.391Z,12.73
2018-02-17T14:18:02.963Z,13.73
2018-02-17T14:20:32.504Z,13.07
2018-02-17T14:23:01.075Z,14.20
2018-02-17T14:25:29.639Z,13.63
2018-02-17T14:27:58.208Z,15.00
2018-02-17T14:30:26.723Z,12.93
2018-02-17T14:32:55.393Z,13.70
2018-02-17T14:35:23.939Z,13.70
2018-02-17T14:38:05.250Z,14.73
2018-02-17T14:40:33.834Z,14.30
2018-02-17T14:43:02.236Z,15.33
2018-02-17T14:45:30.789Z,14.80
2018-02-17T14:47:59.364Z,15.47
2018-02-17T14:50:27.907Z,15.53
2018-02-17T14:52:56.459Z,14.80
2018-02-17T14:55:24.843Z,15.93
2018-02-17T14:57:53.232Z,14.63
2018-02-17T15:00:22.760Z,15.17
2018-02-17T15:02:52.107Z,16.07
2018-02-17T15:05:20.626Z,15.10
2018-02-17T15:07:49.197Z,15.03
2018-02-17T15:10:17.945Z,15.80
2018-02-17T15:12:46.500Z,16.50
2018-02-17T15:15:15.829Z,14.90
2018-02-17T15:17:44.393Z,16.70
2018-02-17T15:20:13.708Z,14.97
2018-02-17T15:22:42.248Z,16.57
2018-02-17T15:25:11.567Z,15.30
2018-02-17T15:27:40.902Z,19.63
2018-02-17T15:30:11.232Z,15.20
2018-02-17T15:32:39.771Z,14.90
2018-02-17T15:35:08.350Z,16.00
2018-02-17T15:37:40.484Z,16.30
2018-02-17T15:40:08.991Z,15.17
2018-02-17T15:42:37.618Z,16.37
2018-02-17T15:45:06.107Z,15.20
2018-02-17T15:47:34.662Z,13.87
2018-02-17T15:50:04.029Z,27.20
2018-02-17T15:52:32.609Z,24.27
2018-02-17T15:55:01.222Z,36.30
2018-02-17T15:57:29.743Z,24.63
2018-02-17T15:59:58.292Z,14.53
2018-02-17T16:02:26.907Z,21.10
2018-02-17T16:04:56.319Z,15.40
2018-02-17T16:07:24.888Z,16.23
2018-02-17T16:09:53.295Z,16.60
2018-02-17T16:12:21.702Z,15.67
2018-02-17T16:14:50.049Z,21.30
2018-02-17T16:17:18.444Z,16.23
2018-02-17T16:19:46.792Z,17.50
2018-02-17T16:22:15.481Z,16.27
2018-02-17T16:24:44.006Z,15.67
2018-02-17T16:27:12.634Z,15.33
2018-02-17T16:29:41.221Z,16.87
2018-02-17T16:32:10.797Z,15.77
2018-02-17T16:34:40.318Z,20.43
2018-02-17T16:37:08.847Z,20.83
2018-02-17T16:39:37.399Z,19.87
2018-02-17T16:42:05.904Z,16.87
2018-02-17T16:44:34.495Z,18.50
2018-02-17T16:47:03.083Z,19.27
2018-02-17T16:49:31.672Z,19.57
2018-02-17T16:52:00.275Z,38.47
2018-02-17T16:54:47.795Z,33.80
2018-02-17T16:57:16.387Z,57.53
2018-02-17T16:59:45.684Z,67.70
2018-02-17T17:02:15.025Z,98.90
2018-02-17T17:04:43.722Z,30.77
2018-02-17T17:07:12.282Z,44.83
2018-02-17T17:09:40.860Z,42.53
2018-02-17T17:12:09.392Z,45.60
2018-02-17T17:14:37.953Z,37.20
2018-02-17T17:17:07.266Z,41.77
2018-02-17T17:19:35.771Z,50.37
2018-02-17T17:22:04.337Z,45.23
2018-02-17T17:24:32.942Z,47.50
2018-02-17T17:27:06.250Z,52.07
2018-02-17T17:29:35.434Z,43.83
2018-02-17T17:32:03.797Z,36.17
2018-02-17T17:34:33.538Z,32.17
2018-02-17T17:37:02.858Z,33.40
2018-02-17T17:39:31.398Z,32.23
2018-02-17T17:41:59.996Z,27.80
2018-02-17T17:44:29.316Z,28.63
2018-02-17T17:47:03.734Z,32.50
2018-02-17T17:49:33.029Z,33.53
2018-02-17T17:52:02.376Z,30.70
2018-02-17T17:54:30.952Z,31.00
2018-02-17T17:56:59.511Z,28.93
2018-02-17T17:59:28.045Z,26.23
2018-02-17T18:01:56.601Z,26.43
2018-02-17T18:04:25.118Z,28.87
2018-02-17T18:06:53.706Z,24.63
2018-02-17T18:09:23.008Z,24.27
2018-02-17T18:11:52.343Z,30.23
2018-02-17T18:14:27.203Z,28.10
2018-02-17T18:16:55.768Z,29.57
2018-02-17T18:19:27.270Z,29.50
2018-02-17T18:21:55.844Z,25.87
2018-02-17T18:24:24.422Z,23.73
2018-02-17T18:26:53.002Z,23.93
2018-02-17T18:29:21.578Z,24.93
2018-02-17T18:31:50.144Z,25.50
2018-02-17T18:34:18.782Z,24.80
2018-02-17T18:36:48.122Z,23.23
2018-02-17T18:39:16.749Z,24.03
2018-02-17T18:41:45.456Z,23.60
2018-02-17T18:44:14.177Z,22.03
2018-02-17T18:46:44.655Z,21.43
2018-02-17T18:49:13.995Z,22.90
2018-02-17T18:51:42.587Z,22.10
2018-02-17T18:54:17.230Z,28.57
2018-02-17T18:56:51.326Z,37.23
2018-02-17T18:59:19.998Z,24.53
2018-02-17T19:01:48.528Z,22.37
2018-02-17T19:04:17.095Z,20.80
2018-02-17T19:06:45.594Z,22.97
2018-02-17T19:09:14.009Z,23.63
2018-02-17T19:11:45.213Z,24.33
2018-02-17T19:14:13.622Z,25.50
2018-02-17T19:16:42.894Z,27.93
2018-02-17T19:19:15.846Z,23.93
2018-02-17T19:21:44.399Z,25.33
2018-02-17T19:24:12.910Z,22.73
2018-02-17T19:26:41.501Z,24.57
2018-02-17T19:29:10.047Z,22.70
2018-02-17T19:31:39.351Z,22.53
2018-02-17T19:34:08.672Z,23.23
2018-02-17T19:36:39.217Z,23.70
2018-02-17T19:39:07.787Z,24.67
2018-02-17T19:41:36.350Z,25.70
2018-02-17T19:44:11.331Z,27.20
2018-02-17T19:46:39.841Z,26.93
2018-02-17T19:49:08.601Z,25.83
2018-02-17T19:51:37.199Z,24.93
2018-02-17T19:54:05.769Z,25.20
2018-02-17T19:56:34.270Z,26.17
2018-02-17T19:59:02.882Z,27.23
2018-02-17T20:01:31.500Z,30.10
2018-02-17T20:04:00.089Z,34.33
2018-02-17T20:06:28.635Z,26.67
2018-02-17T20:08:57.194Z,27.53
2018-02-17T20:11:26.529Z,30.53
2018-02-17T20:13:55.154Z,31.70
2018-02-17T20:16:28.386Z,29.83
2018-02-17T20:18:56.970Z,40.83
2018-02-17T20:21:26.347Z,32.80
2018-02-17T20:23:54.879Z,33.50
2018-02-17T20:26:24.220Z,32.93
2018-02-17T20:28:52.820Z,31.67
2018-02-17T20:31:21.473Z,31.90
2018-02-17T20:33:50.114Z,29.77
2018-02-17T20:36:18.630Z,26.97
2018-02-17T20:38:49.453Z,27.25
2018-02-17T20:41:19.052Z,28.25
2018-02-17T20:43:47.681Z,26.57
2018-02-17T20:46:16.231Z,40.80
2018-02-17T20:48:44.867Z,28.73
2018-02-17T20:51:13.582Z,29.30
2018-02-17T20:53:42.118Z,29.27
2018-02-17T20:56:10.701Z,34.93
2018-02-17T20:58:39.403Z,42.87
2018-02-17T21:01:08.247Z,33.28
2018-02-17T21:03:36.912Z,30.40
2018-02-17T21:06:05.470Z,29.23
2018-02-17T21:08:34.818Z,29.73
2018-02-17T21:11:03.435Z,29.80
2018-02-17T21:13:32.004Z,32.23
2018-02-17T21:16:00.562Z,33.47
2018-02-17T21:18:30.119Z,37.38
2018-02-17T21:20:58.911Z,36.65
2018-02-17T21:23:27.697Z,39.42
2018-02-17T21:25:57.015Z,43.73
2018-02-17T21:28:26.323Z,40.70
2018-02-17T21:30:54.934Z,76.10
2018-02-17T21:33:23.986Z,47.45
2018-02-17T21:35:53.319Z,39.90
2018-02-17T21:38:21.865Z,53.40
2018-02-17T21:40:50.663Z,41.13
2018-02-17T21:43:19.519Z,41.22
2018-02-17T21:45:48.362Z,39.90
2018-02-17T21:48:17.952Z,44.78
2018-02-17T21:50:46.820Z,36.25
2018-02-17T21:53:15.672Z,40.10
2018-02-17T21:55:44.509Z,36.13
2018-02-17T21:58:13.408Z,36.40
2018-02-17T22:00:42.295Z,38.10
2018-02-17T22:03:11.128Z,38.47
2018-02-17T22:05:39.972Z,39.88
2018-02-17T22:08:08.795Z,35.67
2018-02-17T22:10:37.340Z,34.63
2018-02-17T22:13:06.151Z,35.17
2018-02-17T22:15:35.752Z,35.60
2018-02-17T22:18:04.651Z,33.75
2018-02-17T22:20:33.451Z,30.77
2018-02-17T22:23:03.059Z,33.08
2018-02-17T22:25:31.956Z,32.65
2018-02-17T22:28:00.970Z,32.17
2018-02-17T22:30:29.798Z,32.63
2018-02-17T22:32:58.638Z,35.08
2018-02-17T22:35:27.323Z,34.22
2018-02-17T22:37:56.161Z,37.22
2018-02-17T22:40:25.962Z,35.88
2018-02-17T22:42:54.861Z,35.45
2018-02-17T22:45:23.859Z,32.55
2018-02-17T22:47:52.566Z,33.67
2018-02-17T22:50:21.403Z,32.38
2018-02-17T22:52:50.209Z,35.88
2018-02-17T22:55:20.753Z,33.05
2018-02-17T22:57:49.612Z,31.83
2018-02-17T23:00:29.657Z,36.45
2018-02-17T23:02:58.533Z,33.38
2018-02-17T23:05:27.551Z,33.30
2018-02-17T23:07:56.552Z,32.95
2018-02-17T23:10:25.365Z,30.60
2018-02-17T23:12:54.068Z,33.28
2018-02-17T23:15:22.932Z,34.97
2018-02-17T23:17:51.754Z,34.72
2018-02-17T23:20:21.355Z,36.90
2018-02-17T23:22:50.667Z,33.70
2018-02-17T23:25:19.503Z,33.90
2018-02-17T23:27:48.343Z,38.13
2018-02-17T23:30:17.918Z,38.30
2018-02-17T23:32:46.752Z,35.50
2018-02-17T23:35:15.559Z,34.85
2018-02-17T23:37:44.411Z,35.88
2018-02-17T23:40:13.317Z,41.30
2018-02-17T23:42:42.157Z,38.58
2018-02-17T23:45:11.006Z,40.90
2018-02-17T23:47:39.843Z,39.50
2018-02-17T23:50:08.721Z,37.67
2018-02-17T23:52:37.325Z,35.88
2018-02-17T23:55:06.171Z,38.83
2018-02-17T23:57:34.995Z,36.95
